Time;durP1;ratioP1;P1;durP2;ratioP2;P2;SDS_P1;SDS_P2;PMS_P1;PMS_P2;Temp;Humidity;BMP_temperature;BMP_pressure;BME280_temperature;BME280_humidity;BME280_pressure;Samples;Min_cycle;Max_cycle;Signal;HPM_P1;HPM_P2
2022/05/07 00:03:56;;;;;;;18.52;13.70;;;;;;;13.49;57.79;101079.09;8598308;33;21063;-72
2022/05/07 00:09:01;;;;;;;19.05;13.02;;;;;;;13.46;57.66;101073.91;8614669;33;20923;-71
2022/05/07 00:14:04;;;;;;;21.40;13.63;;;;;;;13.45;57.83;101076.75;8622469;33;20905;-72
2022/05/07 00:19:07;;;;;;;18.50;12.60;;;;;;;13.38;57.92;101075.53;8600469;33;20234;-71
2022/05/07 00:24:11;;;;;;;22.67;14.60;;;;;;;13.13;58.85;101076.63;8609192;33;20230;-71
2022/05/07 00:29:14;;;;;;;20.95;14.63;;;;;;;11.96;61.93;101077.69;8600683;33;20942;-72
2022/05/07 00:34:17;;;;;;;19.90;13.90;;;;;;;11.40;64.85;101080.94;8577915;33;20522;-71
2022/05/07 00:39:24;;;;;;;20.77;14.75;;;;;;;11.84;63.42;101079.44;8605464;33;20483;-72
2022/05/07 00:44:27;;;;;;;17.98;13.73;;;;;;;12.09;62.68;101077.59;8598621;33;20152;-71
2022/05/07 00:49:30;;;;;;;21.70;14.85;;;;;;;12.22;62.02;101067.59;8572627;33;20202;-71
2022/05/07 00:54:34;;;;;;;23.55;14.82;;;;;;;12.41;61.52;101068.91;8581513;33;20220;-72
2022/05/07 00:59:39;;;;;;;20.33;13.63;;;;;;;12.47;61.09;101066.56;8613202;33;20151;-71
2022/05/07 01:04:43;;;;;;;18.38;13.60;;;;;;;12.50;61.14;101068.16;8578515;33;20163;-72
2022/05/07 01:09:48;;;;;;;20.15;13.45;;;;;;;12.34;61.03;101066.69;8576991;33;21063;-72
2022/05/07 01:14:52;;;;;;;21.17;15.18;;;;;;;12.21;61.94;101070.41;8594447;33;20147;-72
2022/05/07 01:19:55;;;;;;;20.10;14.20;;;;;;;12.22;61.70;101062.19;8589169;33;21021;-71
2022/05/07 01:25:02;;;;;;;19.10;14.55;;;;;;;12.13;62.00;101066.47;8570215;33;20493;-72
2022/05/07 01:30:07;;;;;;;20.95;15.50;;;;;;;11.98;62.75;101056.88;8565984;33;20449;-72
2022/05/07 01:35:12;;;;;;;20.05;15.05;;;;;;;12.00;62.71;101052.22;8606234;33;20604;-72
2022/05/07 01:40:19;;;;;;;22.15;14.52;;;;;;;12.06;62.61;101050.91;8565049;33;20418;-72
2022/05/07 01:45:26;;;;;;;21.17;14.75;;;;;;;12.11;62.37;101044.19;8576093;33;20639;-72
2022/05/07 01:50:31;;;;;;;21.15;15.05;;;;;;;12.04;62.44;101045.66;8599959;33;20254;-72
2022/05/07 01:55:37;;;;;;;17.92;13.77;;;;;;;12.13;62.21;101041.38;8594221;33;20144;-72
2022/05/07 02:00:41;;;;;;;24.70;15.02;;;;;;;12.19;62.00;101045.44;8609910;33;20422;-72
2022/05/07 02:05:45;;;;;;;19.20;14.00;;;;;;;12.16;61.74;101039.28;8606945;33;20410;-71
2022/05/07 02:10:52;;;;;;;19.80;14.48;;;;;;;12.03;61.92;101038.53;8624730;33;20143;-72
2022/05/07 02:15:55;;;;;;;21.35;14.65;;;;;;;11.90;62.26;101038.63;8611883;33;20408;-72
2022/05/07 02:20:59;;;;;;;18.90;14.57;;;;;;;11.89;62.12;101039.59;8583584;33;20135;-72
2022/05/07 02:26:03;;;;;;;21.17;14.93;;;;;;;11.72;62.48;101037.31;8608574;33;20242;-72
2022/05/07 02:31:07;;;;;;;21.88;14.73;;;;;;;11.67;62.73;101039.50;8579388;33;20424;-72
2022/05/07 02:36:12;;;;;;;17.70;13.77;;;;;;;11.64;62.27;101042.44;8567681;33;20266;-73
2022/05/07 02:46:38;;;;;;;21.25;14.70;;;;;;;11.61;62.58;101042.66;8608329;33;20453;-73
2022/05/07 02:51:45;;;;;;;18.10;13.80;;;;;;;11.43;63.14;101034.97;8573951;33;20460;-72
2022/05/07 02:56:50;;;;;;;20.10;14.93;;;;;;;11.25;63.44;101044.41;8575944;33;20886;-73
2022/05/07 03:01:53;;;;;;;23.10;14.75;;;;;;;11.25;63.79;101049.81;8595522;33;20678;-73
2022/05/07 03:06:57;;;;;;;21.98;14.18;;;;;;;11.22;63.60;101040.13;8600595;33;20143;-73
2022/05/07 03:12:03;;;;;;;18.25;13.80;;;;;;;11.27;63.25;101042.44;8576790;33;20204;-72
2022/05/07 03:17:06;;;;;;;18.67;13.52;;;;;;;11.32;63.33;101045.66;8597018;33;20212;-72
2022/05/07 03:22:10;;;;;;;19.48;14.52;;;;;;;11.38;63.26;101049.72;8596886;33;20143;-72
2022/05/07 03:27:14;;;;;;;22.83;14.38;;;;;;;11.22;63.42;101045.50;8557874;33;20155;-72
2022/05/07 03:32:17;;;;;;;19.60;14.27;;;;;;;11.10;63.95;101030.22;8569222;33;20433;-73
2022/05/07 03:37:26;;;;;;;20.17;15.13;;;;;;;10.87;64.26;101037.28;8580980;33;20423;-73
2022/05/07 03:42:33;;;;;;;21.95;14.73;;;;;;;10.57;65.10;101041.19;8616720;33;20147;-72
2022/05/07 03:47:37;;;;;;;21.73;14.82;;;;;;;10.49;65.68;101029.25;8563030;33;20151;-72
2022/05/07 03:58:03;;;;;;;23.15;15.02;;;;;;;10.91;64.45;101054.03;8607632;33;20920;-72
2022/05/07 04:03:11;;;;;;;22.08;14.45;;;;;;;10.50;64.73;101049.78;8595532;33;20417;-72
2022/05/07 04:08:24;;;;;;;18.77;13.73;;;;;;;10.14;66.12;101059.41;8585300;33;20455;-72
2022/05/07 04:13:30;;;;;;;20.45;13.85;;;;;;;10.33;66.61;101059.00;8578676;33;20431;-72
2022/05/07 04:18:35;;;;;;;20.35;12.75;;;;;;;10.68;65.12;101066.44;8579173;33;20406;-72
2022/05/07 04:23:44;;;;;;;25.70;13.65;;;;;;;10.57;65.63;101070.72;8589599;33;20426;-72
2022/05/07 04:28:50;;;;;;;20.80;14.57;;;;;;;10.69;65.41;101077.06;8565716;33;20151;-72
2022/05/07 04:33:53;;;;;;;19.02;12.75;;;;;;;10.92;65.15;101075.44;8575566;33;20152;-73
2022/05/07 04:38:57;;;;;;;19.67;13.30;;;;;;;11.09;64.78;101076.06;8572075;33;21085;-72
2022/05/07 04:44:06;;;;;;;22.33;14.30;;;;;;;11.10;64.60;101070.53;8603838;33;20689;-72
2022/05/07 04:49:11;;;;;;;22.98;15.23;;;;;;;11.09;64.45;101074.22;8621464;33;20839;-73
2022/05/07 04:54:14;;;;;;;22.77;15.00;;;;;;;11.19;64.63;101071.75;8591637;33;20154;-72
2022/05/07 04:59:21;;;;;;;19.40;14.05;;;;;;;11.35;64.49;101074.16;8578225;33;20336;-72
2022/05/07 05:04:44;;;;;;;22.05;14.60;;;;;;;11.37;64.15;101066.84;8601209;33;20912;-73
2022/05/07 05:09:50;;;;;;;21.83;14.90;;;;;;;11.42;64.21;101078.16;8599524;33;20552;-72
2022/05/07 05:15:08;;;;;;;23.88;15.00;;;;;;;11.51;63.78;101082.84;8634841;27;20422;-73
2022/05/07 05:20:20;;;;;;;24.02;14.65;;;;;;;11.75;63.79;101088.22;8658608;33;20528;-75
2022/05/07 05:25:32;;;;;;;20.42;14.25;;;;;;;12.12;63.27;101091.69;8625525;33;20243;-74
2022/05/07 05:30:39;;;;;;;23.20;15.82;;;;;;;12.38;63.04;101096.94;8644566;33;20453;-74
2022/05/07 05:35:47;;;;;;;24.33;16.23;;;;;;;12.44;62.96;101095.59;8644005;33;20594;-74
2022/05/07 05:40:50;;;;;;;28.92;16.58;;;;;;;12.67;62.83;101096.47;8663521;33;21066;-73
2022/05/07 05:45:55;;;;;;;24.27;16.83;;;;;;;12.81;62.80;101110.63;8661430;33;20440;-73
2022/05/07 05:50:59;;;;;;;26.75;17.35;;;;;;;13.02;63.12;101110.72;8636126;33;20176;-74
2022/05/07 05:56:07;;;;;;;27.25;16.80;;;;;;;13.27;63.21;101106.06;8608069;33;20553;-74
2022/05/07 06:01:18;;;;;;;24.92;16.67;;;;;;;13.40;61.98;101098.72;8654396;33;20422;-74
2022/05/07 06:06:33;;;;;;;21.45;16.15;;;;;;;13.47;61.65;101101.78;8644502;33;20162;-73
2022/05/07 06:11:36;;;;;;;25.08;16.33;;;;;;;13.45;61.10;101106.44;8657558;33;20142;-74
2022/05/07 06:16:42;;;;;;;27.90;17.63;;;;;;;13.50;60.69;101101.53;8637090;33;20420;-73
2022/05/07 06:21:48;;;;;;;26.08;16.50;;;;;;;13.70;60.34;101111.53;8659738;33;20438;-74
2022/05/07 06:32:18;;;;;;;30.73;19.02;;;;;;;14.06;59.17;101111.28;8631189;33;20142;-74
2022/05/07 06:37:22;;;;;;;27.00;17.38;;;;;;;14.35;58.72;101114.22;8638971;33;20151;-74
2022/05/07 06:42:30;;;;;;;27.00;15.95;;;;;;;15.00;57.15;101112.19;8644785;33;20421;-73
2022/05/07 06:47:48;;;;;;;24.25;16.63;;;;;;;15.16;56.01;101106.28;8664371;33;20348;-73
2022/05/07 06:52:51;;;;;;;23.38;15.68;;;;;;;15.13;56.21;101103.84;8666135;33;20641;-72
2022/05/07 06:57:54;;;;;;;29.05;18.42;;;;;;;15.46;57.15;101105.41;8612993;33;20678;-72
2022/05/07 07:03:18;;;;;;;25.90;17.80;;;;;;;15.80;56.78;101111.31;8662631;33;20149;-72
2022/05/07 07:08:21;;;;;;;27.50;18.42;;;;;;;15.77;56.40;101114.31;8644703;33;21057;-72
2022/05/07 07:13:25;;;;;;;26.92;17.33;;;;;;;15.96;55.89;101118.03;8660984;33;20412;-72
2022/05/07 07:18:31;;;;;;;26.58;17.70;;;;;;;16.59;55.37;101116.59;8684398;33;20662;-72
2022/05/07 07:23:34;;;;;;;25.08;17.55;;;;;;;16.39;54.60;101116.75;8632898;33;20531;-73
2022/05/07 07:28:37;;;;;;;26.58;18.02;;;;;;;16.39;54.42;101125.75;8632826;33;20588;-72
2022/05/07 07:33:41;;;;;;;27.23;17.95;;;;;;;16.97;54.03;101132.91;8636145;33;21014;-72
2022/05/07 07:38:44;;;;;;;26.30;18.92;;;;;;;17.13;52.60;101130.44;8638138;33;20542;-73
2022/05/07 07:43:47;;;;;;;24.85;17.13;;;;;;;16.95;54.06;101124.94;8641831;33;20438;-73
2022/05/07 07:48:52;;;;;;;24.50;16.90;;;;;;;17.13;53.95;101127.72;8670433;33;20572;-72
2022/05/07 07:53:55;;;;;;;25.25;17.25;;;;;;;17.31;52.54;101125.09;8673756;33;20888;-73
2022/05/07 07:58:58;;;;;;;23.02;16.85;;;;;;;17.34;52.92;101126.66;8679236;33;20597;-73
2022/05/07 08:04:04;;;;;;;24.35;17.10;;;;;;;17.43;52.21;101123.88;8666821;33;20469;-73
2022/05/07 08:14:28;;;;;;;26.40;17.63;;;;;;;18.45;50.88;101130.00;8659727;33;20568;-72
2022/05/07 08:19:32;;;;;;;22.23;16.42;;;;;;;19.08;50.40;101112.59;8678660;33;20852;-73
2022/05/07 08:24:35;;;;;;;27.38;17.80;;;;;;;19.58;48.27;101109.94;8703896;33;20458;-73
2022/05/07 08:29:38;;;;;;;22.85;15.82;;;;;;;20.52;46.83;101116.03;8683515;33;20499;-73
2022/05/07 08:34:42;;;;;;;22.88;15.52;;;;;;;20.88;46.42;101119.19;8706986;33;21019;-73
2022/05/07 08:39:46;;;;;;;19.20;14.68;;;;;;;20.37;44.46;101115.84;8658706;33;20137;-75
2022/05/07 08:44:49;;;;;;;18.85;14.18;;;;;;;20.15;45.00;101114.63;8706404;33;20126;-74
2022/05/07 08:49:53;;;;;;;21.25;14.10;;;;;;;20.50;44.95;101118.91;8674969;33;20143;-73
2022/05/07 08:54:58;;;;;;;18.45;13.40;;;;;;;20.78;43.53;101118.53;8654931;33;20158;-74
2022/05/07 09:00:05;;;;;;;20.08;12.25;;;;;;;21.00;44.69;101112.31;8673488;33;20170;-73
2022/05/07 09:05:10;;;;;;;15.00;11.45;;;;;;;20.84;42.63;101111.50;8692317;33;20142;-73
2022/05/07 09:10:14;;;;;;;15.98;11.15;;;;;;;21.13;42.67;101119.16;8639377;33;20413;-73
2022/05/07 09:15:17;;;;;;;16.70;11.55;;;;;;;21.38;42.22;101109.81;8637700;33;20458;-73
2022/05/07 09:20:23;;;;;;;14.80;11.00;;;;;;;21.60;43.05;101112.78;8661342;33;20409;-73
2022/05/07 09:25:30;;;;;;;16.90;11.85;;;;;;;21.33;42.11;101109.50;8634728;33;20427;-73
2022/05/07 09:30:33;;;;;;;14.85;11.25;;;;;;;22.34;42.15;101110.41;8676266;33;20242;-73
2022/05/07 09:35:51;;;;;;;18.80;13.32;;;;;;;21.28;41.94;101106.44;8679790;33;20423;-74
2022/05/07 09:40:54;;;;;;;19.42;13.35;;;;;;;20.86;41.78;101106.72;8688123;33;20671;-73
2022/05/07 09:45:57;;;;;;;17.25;10.60;;;;;;;22.21;39.22;101105.53;8673413;33;20414;-73
2022/05/07 09:51:02;;;;;;;16.15;12.40;;;;;;;21.53;40.80;101095.38;8688934;33;20418;-73
2022/05/07 10:01:37;;;;;;;16.20;11.70;;;;;;;22.64;40.58;101103.13;8681586;33;20138;-73
2022/05/07 10:07:00;;;;;;;14.38;10.23;;;;;;;22.46;40.26;101100.75;8675159;33;20424;-73
2022/05/07 10:12:04;;;;;;;13.23;9.43;;;;;;;22.74;40.10;101102.88;8666152;33;20151;-74
2022/05/07 10:17:12;;;;;;;11.68;8.98;;;;;;;23.48;38.73;101102.88;8670182;33;20402;-74
2022/05/07 10:22:21;;;;;;;13.63;9.25;;;;;;;23.44;37.21;101101.53;8646967;33;20423;-73
2022/05/07 10:27:32;;;;;;;15.43;9.55;;;;;;;23.03;38.93;101099.28;8648554;33;20455;-72
2022/05/07 10:32:56;;;;;;;14.18;10.30;;;;;;;23.14;37.28;101100.72;8652960;33;20397;-72
2022/05/07 10:38:07;;;;;;;14.20;9.10;;;;;;;23.17;37.80;101089.38;8663523;33;20712;-72
2022/05/07 10:43:10;;;;;;;15.85;9.48;;;;;;;22.88;38.28;101087.50;8662678;33;20965;-72
2022/05/07 10:48:18;;;;;;;10.82;8.43;;;;;;;22.07;40.55;101093.50;8661605;33;20450;-72
2022/05/07 10:53:39;;;;;;;16.90;9.80;;;;;;;22.17;39.54;101085.06;8667248;33;20169;-75
2022/05/07 10:58:47;;;;;;;13.57;9.98;;;;;;;23.44;38.06;101083.19;8670229;33;20934;-75
2022/05/07 11:04:03;;;;;;;15.35;10.38;;;;;;;24.02;36.18;101069.50;8663260;33;20159;-74
2022/05/07 11:09:14;;;;;;;11.23;8.05;;;;;;;23.23;36.31;101071.34;8643211;33;20546;-73
2022/05/07 11:14:23;;;;;;;11.30;7.68;;;;;;;24.44;35.79;101067.78;8663143;33;20429;-73
2022/05/07 11:19:28;;;;;;;10.73;8.13;;;;;;;24.46;34.65;101057.44;8662333;27;20432;-76
2022/05/07 11:24:33;;;;;;;11.82;7.68;;;;;;;25.39;33.48;101059.88;8645425;33;20467;-75
2022/05/07 11:29:37;;;;;;;9.27;6.78;;;;;;;25.99;33.63;101055.38;8646545;33;20961;-76
2022/05/07 11:34:46;;;;;;;10.90;8.05;;;;;;;23.24;36.05;101062.94;8617170;33;20432;-77
2022/05/07 11:39:55;;;;;;;11.00;7.13;;;;;;;24.01;35.44;101053.25;8642323;33;20805;-74
2022/05/07 11:50:22;;;;;;;9.45;6.60;;;;;;;24.10;35.09;101044.66;8584075;33;20430;-77
2022/05/07 11:55:30;;;;;;;8.30;6.07;;;;;;;25.14;33.46;101038.44;8624942;33;20146;-76
2022/05/07 12:00:33;;;;;;;6.78;5.65;;;;;;;24.93;32.52;101035.75;8662034;33;20254;-76
2022/05/07 12:05:41;;;;;;;7.55;5.40;;;;;;;24.54;34.08;101038.06;8664073;33;20186;-76
2022/05/07 12:10:48;;;;;;;9.38;5.03;;;;;;;25.49;31.30;101032.84;8600130;33;20444;-76
2022/05/07 12:21:14;;;;;;;6.10;4.85;;;;;;;25.05;32.11;101022.34;8661258;33;20519;-75
2022/05/07 12:31:39;;;;;;;7.00;5.70;;;;;;;24.31;34.02;101016.34;8662770;33;20188;-75
2022/05/07 12:36:42;;;;;;;7.88;5.78;;;;;;;24.80;34.25;101009.06;8635761;33;20423;-75
2022/05/07 12:41:48;;;;;;;8.10;5.63;;;;;;;24.22;33.92;101008.47;8647869;33;20627;-75
2022/05/07 12:46:52;;;;;;;10.05;6.43;;;;;;;24.19;35.52;101006.97;8655596;33;20308;-75
2022/05/07 12:51:55;;;;;;;8.32;5.55;;;;;;;23.43;36.10;101012.13;8651421;33;20578;-75
2022/05/07 12:56:59;;;;;;;10.25;6.35;;;;;;;22.59;37.69;101015.22;8638868;33;20213;-76
2022/05/07 13:02:03;;;;;;;10.05;5.60;;;;;;;22.45;37.71;101013.34;8653231;33;20824;-75
2022/05/07 13:07:08;;;;;;;6.97;5.50;;;;;;;22.01;37.51;101020.41;8636035;33;20423;-75
2022/05/07 13:12:13;;;;;;;7.75;5.53;;;;;;;21.22;39.48;101017.84;8640189;33;20198;-75
2022/05/07 13:17:16;;;;;;;10.75;7.38;;;;;;;19.84;42.21;101017.13;8637555;33;21051;-75
2022/05/07 13:22:19;;;;;;;12.10;8.38;;;;;;;20.13;44.92;101027.53;8637756;33;20405;-75
2022/05/07 13:27:24;;;;;;;11.60;7.80;;;;;;;20.03;43.13;101017.81;8638690;33;20475;-74
2022/05/07 13:32:27;;;;;;;10.15;6.72;;;;;;;20.61;42.68;101013.13;8603941;33;20143;-76
2022/05/07 13:37:30;;;;;;;7.72;5.78;;;;;;;21.37;40.59;101015.22;8632452;33;20246;-75
2022/05/07 13:42:36;;;;;;;6.90;4.97;;;;;;;21.52;40.65;101012.53;8636350;33;20209;-75
2022/05/07 13:47:41;;;;;;;8.32;5.40;;;;;;;21.30;41.29;101019.69;8637996;33;20954;-76
2022/05/07 13:52:44;;;;;;;7.90;4.75;;;;;;;21.44;41.63;101018.91;8638089;33;20411;-75
2022/05/07 13:57:49;;;;;;;7.57;5.60;;;;;;;22.01;40.82;101014.09;8638251;33;20521;-75
2022/05/07 14:02:52;;;;;;;7.45;5.80;;;;;;;24.49;35.57;101004.91;8638210;33;20533;-74
2022/05/07 14:07:55;;;;;;;9.07;7.22;;;;;;;25.52;35.07;101013.16;8638119;33;20408;-75
2022/05/07 14:13:00;;;;;;;9.27;8.05;;;;;;;24.81;35.26;101019.00;8645971;33;20440;-74
2022/05/07 14:18:03;;;;;;;11.05;7.63;;;;;;;24.02;36.08;101011.03;8639005;33;20234;-74
2022/05/07 14:23:12;;;;;;;9.80;6.93;;;;;;;23.97;36.83;101014.38;8613987;33;20909;-74
2022/05/07 14:28:16;;;;;;;11.93;7.22;;;;;;;23.23;37.30;101002.81;8635661;33;20694;-74
2022/05/07 14:33:19;;;;;;;10.65;8.50;;;;;;;22.42;37.21;101010.97;8638245;33;20456;-75
2022/05/07 14:38:22;;;;;;;13.55;8.18;;;;;;;21.56;39.05;101010.31;8635985;33;20505;-76
2022/05/07 14:43:27;;;;;;;12.75;8.63;;;;;;;21.65;40.15;100996.41;8593220;33;21054;-75
2022/05/07 14:48:29;;;;;;;11.23;8.13;;;;;;;22.31;38.24;100993.94;8637599;33;20491;-75
2022/05/07 14:53:33;;;;;;;8.85;6.90;;;;;;;22.81;38.45;100982.47;8635089;33;20417;-75
2022/05/07 14:58:37;;;;;;;8.52;5.53;;;;;;;22.14;38.41;100986.94;8628982;33;20501;-75
2022/05/07 15:03:41;;;;;;;5.70;5.13;;;;;;;21.64;38.91;100983.78;8629397;33;20399;-76
2022/05/07 15:14:07;;;;;;;5.35;3.65;;;;;;;21.32;39.08;100986.72;8634895;33;20516;-75
2022/05/07 15:19:10;;;;;;;3.25;2.90;;;;;;;20.73;39.87;100982.56;8632347;33;20409;-75
2022/05/07 15:24:13;;;;;;;3.78;3.00;;;;;;;20.94;39.19;100983.81;8634428;33;20426;-75
2022/05/07 15:29:18;;;;;;;2.42;2.28;;;;;;;22.65;36.75;100967.94;8634197;33;20421;-75
2022/05/07 15:39:42;;;;;;;5.95;3.17;;;;;;;22.15;38.04;100972.22;8639532;33;20233;-75
2022/05/07 15:44:46;;;;;;;3.25;2.03;;;;;;;22.07;37.06;100985.97;8639454;33;20684;-75
2022/05/07 15:49:51;;;;;;;2.88;2.58;;;;;;;22.91;36.28;100980.28;8645469;33;20409;-74
2022/05/07 15:54:57;;;;;;;4.32;2.55;;;;;;;24.20;34.83;100981.22;8654644;33;20183;-75
2022/05/07 16:00:01;;;;;;;6.43;4.82;;;;;;;22.28;37.10;100988.00;8661700;33;20155;-74
2022/05/07 16:05:13;;;;;;;6.10;3.80;;;;;;;22.88;38.12;101002.59;8659774;33;20599;-76
2022/05/07 16:10:16;;;;;;;11.35;6.10;;;;;;;22.36;40.62;101000.75;8662147;33;20175;-75
2022/05/07 16:15:21;;;;;;;13.40;6.85;;;;;;;20.99;43.95;101015.03;8661578;33;20438;-75
2022/05/07 16:20:24;;;;;;;8.13;6.18;;;;;;;20.23;45.86;101019.16;8656294;33;20242;-75
2022/05/07 16:25:27;;;;;;;6.57;5.60;;;;;;;19.72;46.72;101034.84;8655811;33;20146;-73
2022/05/07 16:30:32;;;;;;;6.32;4.70;;;;;;;19.11;47.44;101033.28;8650575;33;20476;-74
2022/05/07 16:35:37;;;;;;;6.07;4.82;;;;;;;18.58;48.00;101040.66;8642490;33;20155;-74
2022/05/07 16:40:42;;;;;;;6.25;4.40;;;;;;;18.46;48.81;101036.53;8640436;33;20455;-74
2022/05/07 16:45:47;;;;;;;6.80;4.47;;;;;;;18.31;49.25;101042.53;8616951;33;21083;-75
2022/05/07 16:50:51;;;;;;;6.15;4.60;;;;;;;18.25;49.66;101056.75;8643193;33;20193;-75
2022/05/07 16:55:55;;;;;;;4.97;4.07;;;;;;;17.87;49.82;101055.22;8642199;33;20422;-76
2022/05/07 17:01:00;;;;;;;6.60;4.25;;;;;;;17.58;51.45;101050.88;8643198;33;20139;-76
2022/05/07 17:06:03;;;;;;;8.35;4.20;;;;;;;17.33;54.31;101052.47;8641138;33;20155;-76
2022/05/07 17:11:06;;;;;;;7.10;5.18;;;;;;;16.99;55.97;101055.75;8636697;33;21077;-75
2022/05/07 17:16:11;;;;;;;7.22;5.57;;;;;;;16.94;56.79;101046.34;8600020;33;20401;-75
2022/05/07 17:21:14;;;;;;;9.80;6.32;;;;;;;17.12;57.44;101054.56;8616671;28;20151;-73
2022/05/07 17:26:17;;;;;;;8.70;6.72;;;;;;;17.46;56.20;101049.38;8638284;33;20439;-73
2022/05/07 17:31:22;;;;;;;11.40;7.53;;;;;;;17.79;54.81;101061.44;8638730;33;20420;-72
2022/05/07 17:36:25;;;;;;;11.02;7.32;;;;;;;18.68;53.71;101060.47;8639175;33;20199;-72
2022/05/07 17:41:28;;;;;;;7.75;6.47;;;;;;;18.61;52.81;101080.31;8634529;33;20242;-74
2022/05/07 17:46:38;;;;;;;10.35;8.32;;;;;;;17.85;55.13;101078.97;8636170;33;20159;-73
2022/05/07 17:51:41;;;;;;;13.55;8.85;;;;;;;17.59;55.76;101084.34;8632814;33;20265;-73
2022/05/07 17:56:44;;;;;;;11.57;8.52;;;;;;;17.62;56.36;101103.03;8639146;33;20467;-73
2022/05/07 18:01:51;;;;;;;13.27;9.57;;;;;;;17.44;56.67;101103.88;8638985;33;20961;-73
2022/05/07 18:06:54;;;;;;;13.10;8.95;;;;;;;17.01;57.69;101110.75;8631308;33;20434;-72
2022/05/07 18:11:57;;;;;;;14.52;9.90;;;;;;;16.84;58.19;101114.25;8611496;33;20565;-72
2022/05/07 18:17:02;;;;;;;12.80;9.68;;;;;;;16.77;58.53;101121.25;8634778;33;21019;-73
2022/05/07 18:22:05;;;;;;;12.98;9.23;;;;;;;16.88;58.89;101133.78;8637642;33;20722;-73
2022/05/07 18:27:08;;;;;;;16.02;10.18;;;;;;;16.75;59.20;101143.09;8636665;33;20152;-73
2022/05/07 18:32:12;;;;;;;13.35;9.55;;;;;;;16.54;59.68;101148.72;8635529;33;20166;-73
2022/05/07 18:42:52;;;;;;;13.50;8.82;;;;;;;16.38;60.78;101155.75;8629538;33;20440;-72
2022/05/07 18:47:57;;;;;;;12.77;9.65;;;;;;;16.22;61.64;101154.41;8633506;33;20454;-73
2022/05/07 18:53:01;;;;;;;12.90;10.60;;;;;;;16.07;62.69;101162.13;8634294;33;20131;-73
2022/05/07 18:58:22;;;;;;;14.65;10.40;;;;;;;15.97;63.18;101163.09;8627258;33;20132;-74
2022/05/07 19:03:26;;;;;;;17.98;11.48;;;;;;;15.92;63.83;101155.38;8617845;33;20155;-73
2022/05/07 19:08:30;;;;;;;15.90;11.70;;;;;;;15.72;64.48;101162.63;8622351;33;20402;-73
2022/05/07 19:13:33;;;;;;;17.73;11.75;;;;;;;15.80;65.05;101172.78;8634361;33;20406;-73
2022/05/07 19:18:38;;;;;;;16.05;12.40;;;;;;;15.85;64.96;101181.31;8630931;33;20522;-73
2022/05/07 19:23:42;;;;;;;20.02;12.95;;;;;;;15.84;65.32;101176.91;8627543;33;20458;-73
2022/05/07 19:28:45;;;;;;;18.60;12.43;;;;;;;15.78;65.59;101172.91;8613615;33;20159;-73
2022/05/07 19:33:50;;;;;;;18.90;12.10;;;;;;;15.75;65.79;101184.03;8637327;33;20144;-73
2022/05/07 19:38:53;;;;;;;19.20;13.10;;;;;;;15.66;65.83;101193.84;8634726;33;20502;-72
2022/05/07 19:43:57;;;;;;;21.98;12.75;;;;;;;15.58;65.82;101196.38;8639705;33;20132;-72
2022/05/07 19:49:03;;;;;;;20.45;12.02;;;;;;;15.64;65.83;101197.69;8635231;33;20135;-73
2022/05/07 19:54:06;;;;;;;18.92;12.10;;;;;;;15.59;65.88;101208.91;8640934;33;20150;-73
2022/05/07 19:59:09;;;;;;;16.50;11.45;;;;;;;15.60;65.78;101213.31;8610012;33;21351;-72
2022/05/07 20:04:14;;;;;;;17.70;11.38;;;;;;;15.50;65.83;101212.44;8635597;33;20505;-73
2022/05/07 20:09:17;;;;;;;16.17;11.13;;;;;;;15.56;65.46;101213.75;8633853;33;20644;-72
2022/05/07 20:14:20;;;;;;;17.45;11.98;;;;;;;15.52;65.41;101223.97;8627833;33;20637;-73
2022/05/07 20:19:26;;;;;;;17.10;11.40;;;;;;;15.45;65.41;101220.97;8628827;33;20546;-73
2022/05/07 20:24:30;;;;;;;17.48;10.85;;;;;;;15.43;65.36;101232.94;8627121;33;20502;-73
2022/05/07 20:29:34;;;;;;;17.67;11.48;;;;;;;15.35;65.27;101240.88;8632456;33;20483;-72
2022/05/07 20:34:39;;;;;;;17.55;10.52;;;;;;;14.90;65.25;101241.16;8621505;33;20519;-72
2022/05/07 20:39:42;;;;;;;16.42;10.65;;;;;;;14.81;64.93;101243.66;8624420;33;21088;-73
2022/05/07 20:50:09;;;;;;;14.82;7.70;;;;;;;14.49;64.43;101246.38;8639725;33;20685;-72
2022/05/07 20:55:12;;;;;;;11.75;6.57;;;;;;;14.40;64.63;101254.38;8640021;33;21224;-72
2022/05/07 21:00:17;;;;;;;10.50;6.13;;;;;;;14.35;64.81;101262.88;8622094;33;20608;-72
2022/05/07 21:05:22;;;;;;;12.45;6.35;;;;;;;14.21;64.50;101260.47;8628571;33;20148;-72
2022/05/07 21:10:25;;;;;;;10.48;6.03;;;;;;;14.13;64.29;101264.63;8625731;33;20174;-73
2022/05/07 21:15:28;;;;;;;9.77;6.35;;;;;;;13.94;64.42;101269.84;8606732;33;20151;-72
2022/05/07 21:20:34;;;;;;;11.50;6.03;;;;;;;13.89;65.04;101262.09;8634788;33;20475;-73
2022/05/07 21:30:58;;;;;;;11.65;6.50;;;;;;;13.66;65.04;101271.22;8636650;33;20209;-72
2022/05/07 21:36:04;;;;;;;11.98;5.90;;;;;;;13.65;65.19;101280.28;8634519;33;20222;-73
2022/05/07 21:41:07;;;;;;;8.95;5.72;;;;;;;13.52;65.26;101288.50;8630420;33;20208;-73
2022/05/07 21:46:11;;;;;;;12.88;5.90;;;;;;;13.48;65.37;101287.03;8635401;33;20413;-73
2022/05/07 21:51:38;;;;;;;10.85;6.00;;;;;;;13.44;65.15;101286.41;8633606;33;20875;-73
2022/05/07 21:56:43;;;;;;;14.13;5.78;;;;;;;13.44;65.17;101293.66;8626383;33;20173;-73
2022/05/07 22:01:46;;;;;;;12.70;5.35;;;;;;;13.42;65.39;101296.47;8639195;33;20151;-72
2022/05/07 22:06:51;;;;;;;10.65;5.95;;;;;;;13.43;65.03;101311.66;8637272;33;20442;-73
2022/05/07 22:11:54;;;;;;;13.05;5.63;;;;;;;13.43;64.81;101305.41;8637118;33;20647;-73
2022/05/07 22:16:57;;;;;;;12.60;6.55;;;;;;;13.33;65.01;101312.47;8633591;33;20638;-73
2022/05/07 22:22:03;;;;;;;9.10;5.95;;;;;;;12.99;64.66;101321.34;8608788;33;20147;-72
2022/05/07 22:27:08;;;;;;;14.60;6.27;;;;;;;12.92;64.91;101330.88;8628185;33;20979;-73
2022/05/07 22:32:12;;;;;;;12.50;7.40;;;;;;;12.83;64.39;101337.84;8612952;33;20602;-73
2022/05/07 22:37:16;;;;;;;8.98;6.13;;;;;;;12.80;64.50;101337.19;8638771;33;20200;-73
2022/05/07 22:42:19;;;;;;;11.98;6.38;;;;;;;12.65;64.42;101351.84;8642019;33;21086;-73
2022/05/07 22:47:22;;;;;;;12.40;6.88;;;;;;;12.48;64.79;101361.16;8632165;33;20301;-73
2022/05/07 22:52:26;;;;;;;15.77;7.22;;;;;;;12.35;65.00;101367.47;8632827;33;20165;-73
2022/05/07 22:57:29;;;;;;;14.77;7.80;;;;;;;12.13;65.45;101381.59;8608198;33;20425;-72
2022/05/07 23:02:32;;;;;;;14.40;8.23;;;;;;;12.03;65.88;101390.44;8637840;33;20403;-71
2022/05/07 23:07:37;;;;;;;18.42;8.00;;;;;;;11.96;65.82;101395.41;8641473;33;20421;-71
2022/05/07 23:12:40;;;;;;;20.85;8.52;;;;;;;12.03;65.94;101398.50;8641687;33;20254;-73
2022/05/07 23:17:44;;;;;;;18.23;9.20;;;;;;;11.90;66.29;101398.50;8647845;28;20154;31
2022/05/07 23:22:49;;;;;;;19.52;10.73;;;;;;;11.88;65.97;101397.78;8521897;33;20176;-75
2022/05/07 23:27:52;;;;;;;17.77;10.25;;;;;;;11.66;66.59;101409.19;8523242;33;20192;-75
2022/05/07 23:32:58;;;;;;;23.73;12.45;;;;;;;11.53;66.76;101411.84;8546212;33;20528;-74
2022/05/07 23:38:05;;;;;;;23.65;12.30;;;;;;;11.45;67.23;101407.00;8557055;33;20151;-75
2022/05/07 23:43:08;;;;;;;22.58;12.05;;;;;;;11.35;67.35;101410.41;8547980;33;20192;-75
2022/05/07 23:48:11;;;;;;;20.65;13.32;;;;;;;11.17;67.86;101416.09;8541886;33;20298;-74
2022/05/07 23:53:15;;;;;;;30.63;13.15;;;;;;;11.06;67.90;101406.03;8583903;33;20158;-75
2022/05/07 23:58:18;;;;;;;26.38;13.85;;;;;;;11.01;68.02;101413.53;8578985;33;20461;-74
